sensor_id;sensor_type;location;lat;lon;timestamp;temperature;humidity
64997;SHT31;51545;51.568;6.998;2023-07-09T00:00:46;21.79;77.00
64997;SHT31;51545;51.568;6.998;2023-07-09T00:03:15;21.88;76.99
64997;SHT31;51545;51.568;6.998;2023-07-09T00:05:41;21.71;77.93
64997;SHT31;51545;51.568;6.998;2023-07-09T00:08:19;21.63;78.62
64997;SHT31;51545;51.568;6.998;2023-07-09T00:10:56;21.57;78.00
64997;SHT31;51545;51.568;6.998;2023-07-09T00:13:23;21.57;77.59
64997;SHT31;51545;51.568;6.998;2023-07-09T00:15:50;21.53;77.74
64997;SHT31;51545;51.568;6.998;2023-07-09T00:18:16;21.54;77.61
64997;SHT31;51545;51.568;6.998;2023-07-09T00:20:43;21.50;77.78
64997;SHT31;51545;51.568;6.998;2023-07-09T00:23:09;21.51;77.98
64997;SHT31;51545;51.568;6.998;2023-07-09T00:25:38;21.57;78.18
64997;SHT31;51545;51.568;6.998;2023-07-09T00:28:17;21.65;78.27
64997;SHT31;51545;51.568;6.998;2023-07-09T00:30:44;21.58;77.38
64997;SHT31;51545;51.568;6.998;2023-07-09T00:33:11;21.58;78.55
64997;SHT31;51545;51.568;6.998;2023-07-09T00:35:42;21.57;78.45
64997;SHT31;51545;51.568;6.998;2023-07-09T00:38:17;21.53;78.55
64997;SHT31;51545;51.568;6.998;2023-07-09T00:40:59;21.36;79.28
64997;SHT31;51545;51.568;6.998;2023-07-09T00:43:31;21.26;79.22
64997;SHT31;51545;51.568;6.998;2023-07-09T00:46:14;21.29;79.69
64997;SHT31;51545;51.568;6.998;2023-07-09T00:48:40;21.30;79.29
64997;SHT31;51545;51.568;6.998;2023-07-09T00:51:16;21.39;79.64
64997;SHT31;51545;51.568;6.998;2023-07-09T00:53:45;21.39;79.24
64997;SHT31;51545;51.568;6.998;2023-07-09T00:56:16;21.22;79.52
64997;SHT31;51545;51.568;6.998;2023-07-09T00:58:54;21.20;80.53
64997;SHT31;51545;51.568;6.998;2023-07-09T01:01:25;21.18;80.25
64997;SHT31;51545;51.568;6.998;2023-07-09T01:03:52;21.12;80.27
64997;SHT31;51545;51.568;6.998;2023-07-09T01:06:32;21.19;80.57
64997;SHT31;51545;51.568;6.998;2023-07-09T01:09:02;21.15;80.53
64997;SHT31;51545;51.568;6.998;2023-07-09T01:11:28;21.08;80.57
64997;SHT31;51545;51.568;6.998;2023-07-09T01:13:55;21.09;80.33
64997;SHT31;51545;51.568;6.998;2023-07-09T01:16:27;21.06;80.44
64997;SHT31;51545;51.568;6.998;2023-07-09T01:18:57;21.12;80.86
64997;SHT31;51545;51.568;6.998;2023-07-09T01:21:23;21.09;80.36
64997;SHT31;51545;51.568;6.998;2023-07-09T01:23:49;21.03;80.68
64997;SHT31;51545;51.568;6.998;2023-07-09T01:26:17;20.98;81.14
64997;SHT31;51545;51.568;6.998;2023-07-09T01:28:44;20.96;81.20
64997;SHT31;51545;51.568;6.998;2023-07-09T01:31:11;20.88;81.41
64997;SHT31;51545;51.568;6.998;2023-07-09T01:33:40;20.78;81.76
64997;SHT31;51545;51.568;6.998;2023-07-09T01:36:10;20.90;81.63
64997;SHT31;51545;51.568;6.998;2023-07-09T01:38:41;20.88;81.94
64997;SHT31;51545;51.568;6.998;2023-07-09T01:41:07;20.98;81.64
64997;SHT31;51545;51.568;6.998;2023-07-09T01:43:33;21.03;81.15
64997;SHT31;51545;51.568;6.998;2023-07-09T01:45:59;21.08;81.28
64997;SHT31;51545;51.568;6.998;2023-07-09T01:48:26;21.06;81.24
64997;SHT31;51545;51.568;6.998;2023-07-09T01:50:52;21.09;81.09
64997;SHT31;51545;51.568;6.998;2023-07-09T01:53:23;21.02;81.02
64997;SHT31;51545;51.568;6.998;2023-07-09T01:55:51;20.80;81.54
64997;SHT31;51545;51.568;6.998;2023-07-09T01:58:17;20.88;81.94
64997;SHT31;51545;51.568;6.998;2023-07-09T02:00:43;20.82;81.91
64997;SHT31;51545;51.568;6.998;2023-07-09T02:03:10;20.75;82.12
64997;SHT31;51545;51.568;6.998;2023-07-09T02:05:36;20.70;82.42
64997;SHT31;51545;51.568;6.998;2023-07-09T02:08:02;20.68;82.41
64997;SHT31;51545;51.568;6.998;2023-07-09T02:10:29;20.67;82.96
64997;SHT31;51545;51.568;6.998;2023-07-09T02:12:55;20.61;83.05
64997;SHT31;51545;51.568;6.998;2023-07-09T02:15:20;20.64;82.91
64997;SHT31;51545;51.568;6.998;2023-07-09T02:17:46;20.64;83.18
64997;SHT31;51545;51.568;6.998;2023-07-09T02:20:12;20.65;82.97
64997;SHT31;51545;51.568;6.998;2023-07-09T02:22:39;20.68;82.68
64997;SHT31;51545;51.568;6.998;2023-07-09T02:25:06;20.68;82.83
64997;SHT31;51545;51.568;6.998;2023-07-09T02:27:32;20.63;83.40
64997;SHT31;51545;51.568;6.998;2023-07-09T02:29:58;20.64;83.35
64997;SHT31;51545;51.568;6.998;2023-07-09T02:32:25;20.48;83.61
64997;SHT31;51545;51.568;6.998;2023-07-09T02:34:52;20.54;83.57
64997;SHT31;51545;51.568;6.998;2023-07-09T02:37:19;20.40;83.61
64997;SHT31;51545;51.568;6.998;2023-07-09T02:39:46;20.44;83.95
64997;SHT31;51545;51.568;6.998;2023-07-09T02:42:12;20.48;83.71
64997;SHT31;51545;51.568;6.998;2023-07-09T02:44:39;20.41;84.18
64997;SHT31;51545;51.568;6.998;2023-07-09T02:47:06;20.43;83.86
64997;SHT31;51545;51.568;6.998;2023-07-09T02:49:31;20.33;83.94
64997;SHT31;51545;51.568;6.998;2023-07-09T02:51:57;20.27;84.24
64997;SHT31;51545;51.568;6.998;2023-07-09T02:54:23;20.15;85.40
64997;SHT31;51545;51.568;6.998;2023-07-09T02:56:48;20.22;84.96
64997;SHT31;51545;51.568;6.998;2023-07-09T02:59:14;20.19;84.65
64997;SHT31;51545;51.568;6.998;2023-07-09T03:01:39;20.20;84.81
64997;SHT31;51545;51.568;6.998;2023-07-09T03:04:04;20.23;84.60
64997;SHT31;51545;51.568;6.998;2023-07-09T03:06:31;20.16;84.45
64997;SHT31;51545;51.568;6.998;2023-07-09T03:09:00;20.06;85.27
64997;SHT31;51545;51.568;6.998;2023-07-09T03:11:28;20.06;84.84
64997;SHT31;51545;51.568;6.998;2023-07-09T03:13:55;20.08;84.78
64997;SHT31;51545;51.568;6.998;2023-07-09T03:16:20;19.98;85.27
64997;SHT31;51545;51.568;6.998;2023-07-09T03:18:46;19.97;85.26
64997;SHT31;51545;51.568;6.998;2023-07-09T03:21:11;19.78;86.16
64997;SHT31;51545;51.568;6.998;2023-07-09T03:23:37;19.70;86.38
64997;SHT31;51545;51.568;6.998;2023-07-09T03:26:03;19.63;87.09
64997;SHT31;51545;51.568;6.998;2023-07-09T03:28:30;19.55;87.13
64997;SHT31;51545;51.568;6.998;2023-07-09T03:30:56;19.57;87.23
64997;SHT31;51545;51.568;6.998;2023-07-09T03:33:23;19.71;87.34
64997;SHT31;51545;51.568;6.998;2023-07-09T03:35:49;19.74;86.87
64997;SHT31;51545;51.568;6.998;2023-07-09T03:38:15;19.71;86.98
64997;SHT31;51545;51.568;6.998;2023-07-09T03:40:41;19.67;86.99
64997;SHT31;51545;51.568;6.998;2023-07-09T03:43:06;19.57;87.52
64997;SHT31;51545;51.568;6.998;2023-07-09T03:45:34;19.65;87.59
64997;SHT31;51545;51.568;6.998;2023-07-09T03:48:01;19.72;87.34
64997;SHT31;51545;51.568;6.998;2023-07-09T03:50:28;19.83;86.74
64997;SHT31;51545;51.568;6.998;2023-07-09T03:52:53;19.86;86.53
64997;SHT31;51545;51.568;6.998;2023-07-09T03:55:19;19.86;86.71
64997;SHT31;51545;51.568;6.998;2023-07-09T03:57:45;19.85;86.61
64997;SHT31;51545;51.568;6.998;2023-07-09T04:00:10;19.67;87.07
64997;SHT31;51545;51.568;6.998;2023-07-09T04:02:37;19.67;86.96
64997;SHT31;51545;51.568;6.998;2023-07-09T04:05:03;19.67;86.94
64997;SHT31;51545;51.568;6.998;2023-07-09T04:07:29;19.70;87.57
64997;SHT31;51545;51.568;6.998;2023-07-09T04:09:55;19.68;87.03
64997;SHT31;51545;51.568;6.998;2023-07-09T04:12:20;19.74;87.13
64997;SHT31;51545;51.568;6.998;2023-07-09T04:14:46;19.78;87.45
64997;SHT31;51545;51.568;6.998;2023-07-09T04:17:11;19.81;87.44
64997;SHT31;51545;51.568;6.998;2023-07-09T04:19:37;19.75;87.40
64997;SHT31;51545;51.568;6.998;2023-07-09T04:22:02;19.86;87.59
64997;SHT31;51545;51.568;6.998;2023-07-09T04:24:29;19.89;87.04
64997;SHT31;51545;51.568;6.998;2023-07-09T04:26:55;19.88;87.54
64997;SHT31;51545;51.568;6.998;2023-07-09T04:29:22;20.05;87.21
64997;SHT31;51545;51.568;6.998;2023-07-09T04:31:48;20.04;86.70
64997;SHT31;51545;51.568;6.998;2023-07-09T04:34:14;20.04;87.06
64997;SHT31;51545;51.568;6.998;2023-07-09T04:36:39;19.88;87.13
64997;SHT31;51545;51.568;6.998;2023-07-09T04:39:05;20.04;87.17
64997;SHT31;51545;51.568;6.998;2023-07-09T04:41:31;20.13;87.02
64997;SHT31;51545;51.568;6.998;2023-07-09T04:43:56;20.25;87.33
64997;SHT31;51545;51.568;6.998;2023-07-09T04:46:21;20.27;87.04
64997;SHT31;51545;51.568;6.998;2023-07-09T04:48:47;20.36;87.89
64997;SHT31;51545;51.568;6.998;2023-07-09T04:51:13;20.46;87.47
64997;SHT31;51545;51.568;6.998;2023-07-09T04:53:38;20.51;88.02
64997;SHT31;51545;51.568;6.998;2023-07-09T04:56:03;20.64;88.11
64997;SHT31;51545;51.568;6.998;2023-07-09T04:58:29;20.67;87.83
64997;SHT31;51545;51.568;6.998;2023-07-09T05:00:58;20.71;87.82
64997;SHT31;51545;51.568;6.998;2023-07-09T05:03:24;20.81;87.05
64997;SHT31;51545;51.568;6.998;2023-07-09T05:05:50;20.92;86.86
64997;SHT31;51545;51.568;6.998;2023-07-09T05:08:15;20.94;85.71
64997;SHT31;51545;51.568;6.998;2023-07-09T05:10:42;21.06;85.17
64997;SHT31;51545;51.568;6.998;2023-07-09T05:13:13;21.16;84.93
64997;SHT31;51545;51.568;6.998;2023-07-09T05:15:40;21.18;84.68
64997;SHT31;51545;51.568;6.998;2023-07-09T05:18:07;21.19;84.20
64997;SHT31;51545;51.568;6.998;2023-07-09T05:20:33;21.33;84.22
64997;SHT31;51545;51.568;6.998;2023-07-09T05:22:59;21.37;84.32
64997;SHT31;51545;51.568;6.998;2023-07-09T05:25:24;21.51;85.24
64997;SHT31;51545;51.568;6.998;2023-07-09T05:27:50;21.57;82.90
64997;SHT31;51545;51.568;6.998;2023-07-09T05:30:16;21.74;80.94
64997;SHT31;51545;51.568;6.998;2023-07-09T05:32:42;21.78;82.27
64997;SHT31;51545;51.568;6.998;2023-07-09T05:35:08;21.90;79.97
64997;SHT31;51545;51.568;6.998;2023-07-09T05:37:34;22.06;78.90
64997;SHT31;51545;51.568;6.998;2023-07-09T05:40:00;22.22;78.96
64997;SHT31;51545;51.568;6.998;2023-07-09T05:42:26;22.30;78.66
64997;SHT31;51545;51.568;6.998;2023-07-09T05:44:51;22.46;79.66
64997;SHT31;51545;51.568;6.998;2023-07-09T05:47:17;22.53;79.47
64997;SHT31;51545;51.568;6.998;2023-07-09T05:49:42;22.53;79.38
64997;SHT31;51545;51.568;6.998;2023-07-09T05:52:08;22.56;77.51
64997;SHT31;51545;51.568;6.998;2023-07-09T05:54:33;22.70;77.81
64997;SHT31;51545;51.568;6.998;2023-07-09T05:56:59;22.77;77.39
64997;SHT31;51545;51.568;6.998;2023-07-09T05:59:24;22.87;77.37
64997;SHT31;51545;51.568;6.998;2023-07-09T06:01:50;22.96;78.36
64997;SHT31;51545;51.568;6.998;2023-07-09T06:04:15;23.03;77.29
64997;SHT31;51545;51.568;6.998;2023-07-09T06:06:41;23.11;76.96
64997;SHT31;51545;51.568;6.998;2023-07-09T06:09:07;23.25;77.32
64997;SHT31;51545;51.568;6.998;2023-07-09T06:11:34;23.27;75.74
64997;SHT31;51545;51.568;6.998;2023-07-09T06:14:00;23.33;75.33
64997;SHT31;51545;51.568;6.998;2023-07-09T06:16:26;23.53;74.97
64997;SHT31;51545;51.568;6.998;2023-07-09T06:18:52;23.57;74.26
64997;SHT31;51545;51.568;6.998;2023-07-09T06:21:18;23.64;75.12
64997;SHT31;51545;51.568;6.998;2023-07-09T06:23:44;23.73;74.44
64997;SHT31;51545;51.568;6.998;2023-07-09T06:26:10;23.81;74.71
64997;SHT31;51545;51.568;6.998;2023-07-09T06:28:36;23.92;74.47
64997;SHT31;51545;51.568;6.998;2023-07-09T06:31:01;24.01;73.87
64997;SHT31;51545;51.568;6.998;2023-07-09T06:33:27;24.15;73.73
64997;SHT31;51545;51.568;6.998;2023-07-09T06:35:55;24.18;73.57
64997;SHT31;51545;51.568;6.998;2023-07-09T06:38:22;24.30;73.18
64997;SHT31;51545;51.568;6.998;2023-07-09T06:40:48;24.40;73.62
64997;SHT31;51545;51.568;6.998;2023-07-09T06:43:13;24.53;74.19
64997;SHT31;51545;51.568;6.998;2023-07-09T06:45:39;24.61;73.42
64997;SHT31;51545;51.568;6.998;2023-07-09T06:48:16;24.68;73.32
64997;SHT31;51545;51.568;6.998;2023-07-09T06:50:42;24.85;73.67
64997;SHT31;51545;51.568;6.998;2023-07-09T06:53:08;24.97;71.93
64997;SHT31;51545;51.568;6.998;2023-07-09T06:55:34;25.05;71.61
64997;SHT31;51545;51.568;6.998;2023-07-09T06:58:00;25.08;73.13
64997;SHT31;51545;51.568;6.998;2023-07-09T07:00:25;25.26;71.66
64997;SHT31;51545;51.568;6.998;2023-07-09T07:02:51;25.29;71.13
64997;SHT31;51545;51.568;6.998;2023-07-09T07:05:16;25.43;71.24
64997;SHT31;51545;51.568;6.998;2023-07-09T07:07:43;25.54;71.71
64997;SHT31;51545;51.568;6.998;2023-07-09T07:10:08;25.74;69.34
64997;SHT31;51545;51.568;6.998;2023-07-09T07:12:40;25.77;69.20
64997;SHT31;51545;51.568;6.998;2023-07-09T07:15:08;25.95;68.83
64997;SHT31;51545;51.568;6.998;2023-07-09T07:17:34;26.05;68.15
64997;SHT31;51545;51.568;6.998;2023-07-09T07:19:59;26.13;67.79
64997;SHT31;51545;51.568;6.998;2023-07-09T07:22:25;26.13;68.17
64997;SHT31;51545;51.568;6.998;2023-07-09T07:24:51;26.24;69.10
64997;SHT31;51545;51.568;6.998;2023-07-09T07:27:16;26.39;69.60
64997;SHT31;51545;51.568;6.998;2023-07-09T07:29:42;26.36;69.69
64997;SHT31;51545;51.568;6.998;2023-07-09T07:32:08;26.50;68.03
64997;SHT31;51545;51.568;6.998;2023-07-09T07:34:33;26.71;67.00
64997;SHT31;51545;51.568;6.998;2023-07-09T07:36:59;26.71;66.09
64997;SHT31;51545;51.568;6.998;2023-07-09T07:39:24;26.77;66.92
64997;SHT31;51545;51.568;6.998;2023-07-09T07:41:50;26.91;66.87
64997;SHT31;51545;51.568;6.998;2023-07-09T07:44:16;26.95;66.16
64997;SHT31;51545;51.568;6.998;2023-07-09T07:46:42;27.02;66.48
64997;SHT31;51545;51.568;6.998;2023-07-09T07:49:08;27.15;67.80
64997;SHT31;51545;51.568;6.998;2023-07-09T07:51:33;27.20;67.16
64997;SHT31;51545;51.568;6.998;2023-07-09T07:53:59;27.30;67.40
64997;SHT31;51545;51.568;6.998;2023-07-09T07:56:24;27.47;66.03
64997;SHT31;51545;51.568;6.998;2023-07-09T07:58:51;27.69;67.30
64997;SHT31;51545;51.568;6.998;2023-07-09T08:01:16;27.71;65.08
64997;SHT31;51545;51.568;6.998;2023-07-09T08:03:42;27.73;65.03
64997;SHT31;51545;51.568;6.998;2023-07-09T08:06:08;27.84;64.72
64997;SHT31;51545;51.568;6.998;2023-07-09T08:08:33;27.87;65.36
64997;SHT31;51545;51.568;6.998;2023-07-09T08:11:02;27.88;66.96
64997;SHT31;51545;51.568;6.998;2023-07-09T08:13:33;28.08;63.86
64997;SHT31;51545;51.568;6.998;2023-07-09T08:15:59;28.02;64.46
64997;SHT31;51545;51.568;6.998;2023-07-09T08:18:25;28.32;63.55
64997;SHT31;51545;51.568;6.998;2023-07-09T08:20:50;28.36;63.69
64997;SHT31;51545;51.568;6.998;2023-07-09T08:23:16;28.57;64.15
64997;SHT31;51545;51.568;6.998;2023-07-09T08:25:41;28.57;64.03
64997;SHT31;51545;51.568;6.998;2023-07-09T08:28:07;28.77;63.99
64997;SHT31;51545;51.568;6.998;2023-07-09T08:30:32;28.77;63.29
64997;SHT31;51545;51.568;6.998;2023-07-09T08:32:58;28.94;62.39
64997;SHT31;51545;51.568;6.998;2023-07-09T08:35:24;29.01;61.90
64997;SHT31;51545;51.568;6.998;2023-07-09T08:37:49;29.02;63.49
64997;SHT31;51545;51.568;6.998;2023-07-09T08:40:15;29.24;62.05
64997;SHT31;51545;51.568;6.998;2023-07-09T08:42:45;29.29;61.60
64997;SHT31;51545;51.568;6.998;2023-07-09T08:45:23;29.36;59.69
64997;SHT31;51545;51.568;6.998;2023-07-09T08:50:47;29.78;62.61
64997;SHT31;51545;51.568;6.998;2023-07-09T08:53:19;29.84;62.60
64997;SHT31;51545;51.568;6.998;2023-07-09T08:55:52;30.02;61.63
64997;SHT31;51545;51.568;6.998;2023-07-09T08:58:21;30.18;60.40
64997;SHT31;51545;51.568;6.998;2023-07-09T09:00:51;30.37;60.03
64997;SHT31;51545;51.568;6.998;2023-07-09T09:05:45;30.59;59.77
64997;SHT31;51545;51.568;6.998;2023-07-09T09:08:20;30.49;58.97
64997;SHT31;51545;51.568;6.998;2023-07-09T09:11:06;30.63;58.40
64997;SHT31;51545;51.568;6.998;2023-07-09T09:13:37;30.71;57.92
64997;SHT31;51545;51.568;6.998;2023-07-09T09:16:04;30.84;55.78
64997;SHT31;51545;51.568;6.998;2023-07-09T09:18:49;31.04;57.04
64997;SHT31;51545;51.568;6.998;2023-07-09T09:21:17;31.14;57.85
64997;SHT31;51545;51.568;6.998;2023-07-09T09:23:58;31.01;55.79
64997;SHT31;51545;51.568;6.998;2023-07-09T09:26:45;31.28;57.58
64997;SHT31;51545;51.568;6.998;2023-07-09T09:29:14;31.38;54.20
64997;SHT31;51545;51.568;6.998;2023-07-09T09:31:41;31.39;54.35
64997;SHT31;51545;51.568;6.998;2023-07-09T09:34:17;31.50;54.19
64997;SHT31;51545;51.568;6.998;2023-07-09T09:36:48;31.47;54.10
64997;SHT31;51545;51.568;6.998;2023-07-09T09:39:14;31.52;53.50
64997;SHT31;51545;51.568;6.998;2023-07-09T09:41:39;31.72;55.28
64997;SHT31;51545;51.568;6.998;2023-07-09T09:44:15;31.86;53.67
64997;SHT31;51545;51.568;6.998;2023-07-09T09:46:44;32.08;54.14
64997;SHT31;51545;51.568;6.998;2023-07-09T09:49:09;32.32;53.28
64997;SHT31;51545;51.568;6.998;2023-07-09T09:51:35;32.31;53.06
64997;SHT31;51545;51.568;6.998;2023-07-09T09:54:07;32.45;53.24
64997;SHT31;51545;51.568;6.998;2023-07-09T09:56:41;32.43;52.04
64997;SHT31;51545;51.568;6.998;2023-07-09T09:59:13;32.52;52.43
64997;SHT31;51545;51.568;6.998;2023-07-09T10:01:43;32.75;52.58
64997;SHT31;51545;51.568;6.998;2023-07-09T10:04:10;32.96;52.00
64997;SHT31;51545;51.568;6.998;2023-07-09T10:06:42;32.96;52.10
64997;SHT31;51545;51.568;6.998;2023-07-09T10:09:43;32.65;50.46
64997;SHT31;51545;51.568;6.998;2023-07-09T10:12:14;32.62;51.08
64997;SHT31;51545;51.568;6.998;2023-07-09T10:17:54;33.07;49.94
64997;SHT31;51545;51.568;6.998;2023-07-09T10:20:40;33.40;50.27
64997;SHT31;51545;51.568;6.998;2023-07-09T10:25:52;33.82;52.53
64997;SHT31;51545;51.568;6.998;2023-07-09T10:28:29;34.13;50.66
64997;SHT31;51545;51.568;6.998;2023-07-09T10:33:56;34.34;50.97
64997;SHT31;51545;51.568;6.998;2023-07-09T10:39:26;34.33;49.42
64997;SHT31;51545;51.568;6.998;2023-07-09T10:41:57;34.69;48.73
64997;SHT31;51545;51.568;6.998;2023-07-09T10:44:33;34.00;48.15
64997;SHT31;51545;51.568;6.998;2023-07-09T10:47:04;34.20;48.62
64997;SHT31;51545;51.568;6.998;2023-07-09T10:49:35;34.47;50.60
64997;SHT31;51545;51.568;6.998;2023-07-09T10:52:20;34.48;46.59
64997;SHT31;51545;51.568;6.998;2023-07-09T10:54:54;34.23;47.54
64997;SHT31;51545;51.568;6.998;2023-07-09T10:57:30;34.21;48.06
64997;SHT31;51545;51.568;6.998;2023-07-09T10:59:59;34.25;49.46
64997;SHT31;51545;51.568;6.998;2023-07-09T11:02:27;34.37;47.68
64997;SHT31;51545;51.568;6.998;2023-07-09T11:05:01;34.27;47.20
64997;SHT31;51545;51.568;6.998;2023-07-09T11:15:56;34.72;49.40
64997;SHT31;51545;51.568;6.998;2023-07-09T11:18:25;34.54;47.42
64997;SHT31;51545;51.568;6.998;2023-07-09T11:21:04;34.58;45.91
64997;SHT31;51545;51.568;6.998;2023-07-09T11:28:39;34.81;47.43
64997;SHT31;51545;51.568;6.998;2023-07-09T11:31:23;34.79;46.67
64997;SHT31;51545;51.568;6.998;2023-07-09T11:33:59;34.66;46.36
64997;SHT31;51545;51.568;6.998;2023-07-09T11:36:45;34.86;45.23
64997;SHT31;51545;51.568;6.998;2023-07-09T11:39:17;34.95;44.36
64997;SHT31;51545;51.568;6.998;2023-07-09T11:41:47;34.79;45.06
64997;SHT31;51545;51.568;6.998;2023-07-09T11:44:21;35.04;47.38
64997;SHT31;51545;51.568;6.998;2023-07-09T11:46:53;34.93;42.83
64997;SHT31;51545;51.568;6.998;2023-07-09T11:49:31;34.68;43.38
64997;SHT31;51545;51.568;6.998;2023-07-09T11:52:04;34.71;45.26
64997;SHT31;51545;51.568;6.998;2023-07-09T11:54:36;34.72;44.32
64997;SHT31;51545;51.568;6.998;2023-07-09T11:57:03;34.54;45.06
64997;SHT31;51545;51.568;6.998;2023-07-09T11:59:39;34.89;43.77
64997;SHT31;51545;51.568;6.998;2023-07-09T12:02:09;35.21;43.86
64997;SHT31;51545;51.568;6.998;2023-07-09T12:04:43;35.12;43.75
64997;SHT31;51545;51.568;6.998;2023-07-09T12:07:09;35.17;42.63
64997;SHT31;51545;51.568;6.998;2023-07-09T12:09:39;35.51;44.04
64997;SHT31;51545;51.568;6.998;2023-07-09T12:12:18;35.57;45.32
64997;SHT31;51545;51.568;6.998;2023-07-09T12:14:48;35.62;42.69
64997;SHT31;51545;51.568;6.998;2023-07-09T12:17:14;35.23;41.81
64997;SHT31;51545;51.568;6.998;2023-07-09T12:19:40;35.41;41.49
64997;SHT31;51545;51.568;6.998;2023-07-09T12:22:06;35.30;42.57
64997;SHT31;51545;51.568;6.998;2023-07-09T12:24:39;35.44;45.29
64997;SHT31;51545;51.568;6.998;2023-07-09T12:29:44;35.25;45.36
64997;SHT31;51545;51.568;6.998;2023-07-09T12:32:11;35.29;42.51
64997;SHT31;51545;51.568;6.998;2023-07-09T12:34:41;35.54;43.34
64997;SHT31;51545;51.568;6.998;2023-07-09T12:37:15;35.47;41.34
64997;SHT31;51545;51.568;6.998;2023-07-09T12:39:41;35.12;42.94
64997;SHT31;51545;51.568;6.998;2023-07-09T12:42:15;35.53;44.34
64997;SHT31;51545;51.568;6.998;2023-07-09T12:44:42;35.53;43.24
64997;SHT31;51545;51.568;6.998;2023-07-09T12:47:11;35.06;41.89
64997;SHT31;51545;51.568;6.998;2023-07-09T12:49:40;35.07;40.80
64997;SHT31;51545;51.568;6.998;2023-07-09T12:52:16;35.33;42.43
64997;SHT31;51545;51.568;6.998;2023-07-09T12:54:57;35.55;40.65
64997;SHT31;51545;51.568;6.998;2023-07-09T12:57:25;35.23;42.64
64997;SHT31;51545;51.568;6.998;2023-07-09T12:59:51;35.02;42.46
64997;SHT31;51545;51.568;6.998;2023-07-09T13:02:18;34.89;41.96
64997;SHT31;51545;51.568;6.998;2023-07-09T13:05:02;34.91;43.72
64997;SHT31;51545;51.568;6.998;2023-07-09T13:07:32;34.57;41.60
64997;SHT31;51545;51.568;6.998;2023-07-09T13:10:07;34.54;42.48
64997;SHT31;51545;51.568;6.998;2023-07-09T13:12:47;34.45;42.84
64997;SHT31;51545;51.568;6.998;2023-07-09T13:15:19;34.43;42.27
64997;SHT31;51545;51.568;6.998;2023-07-09T13:17:47;34.54;43.20
64997;SHT31;51545;51.568;6.998;2023-07-09T13:20:12;34.21;42.32
64997;SHT31;51545;51.568;6.998;2023-07-09T13:22:38;34.23;42.90
64997;SHT31;51545;51.568;6.998;2023-07-09T13:25:04;33.92;43.19
64997;SHT31;51545;51.568;6.998;2023-07-09T13:27:31;33.88;43.08
64997;SHT31;51545;51.568;6.998;2023-07-09T13:29:56;33.79;43.67
64997;SHT31;51545;51.568;6.998;2023-07-09T13:32:21;33.83;46.31
64997;SHT31;51545;51.568;6.998;2023-07-09T13:34:47;33.65;45.05
64997;SHT31;51545;51.568;6.998;2023-07-09T13:37:14;33.85;46.42
64997;SHT31;51545;51.568;6.998;2023-07-09T13:39:40;33.65;46.51
64997;SHT31;51545;51.568;6.998;2023-07-09T13:42:13;33.48;51.51
64997;SHT31;51545;51.568;6.998;2023-07-09T13:44:42;33.48;45.97
64997;SHT31;51545;51.568;6.998;2023-07-09T13:47:15;33.34;48.31
64997;SHT31;51545;51.568;6.998;2023-07-09T13:49:44;33.24;48.42
64997;SHT31;51545;51.568;6.998;2023-07-09T13:52:17;32.93;48.07
64997;SHT31;51545;51.568;6.998;2023-07-09T13:54:46;33.03;46.20
64997;SHT31;51545;51.568;6.998;2023-07-09T13:57:16;32.97;47.60
64997;SHT31;51545;51.568;6.998;2023-07-09T13:59:45;32.21;56.26
64997;SHT31;51545;51.568;6.998;2023-07-09T14:02:22;31.72;60.33
64997;SHT31;51545;51.568;6.998;2023-07-09T14:04:56;31.45;55.69
64997;SHT31;51545;51.568;6.998;2023-07-09T14:07:26;31.38;59.66
64997;SHT31;51545;51.568;6.998;2023-07-09T14:09:58;30.97;61.73
64997;SHT31;51545;51.568;6.998;2023-07-09T14:12:24;30.80;60.64
64997;SHT31;51545;51.568;6.998;2023-07-09T14:14:52;30.77;56.87
64997;SHT31;51545;51.568;6.998;2023-07-09T14:17:18;30.84;60.62
64997;SHT31;51545;51.568;6.998;2023-07-09T14:19:45;30.42;60.36
64997;SHT31;51545;51.568;6.998;2023-07-09T14:24:58;30.21;59.71
64997;SHT31;51545;51.568;6.998;2023-07-09T14:27:25;30.11;64.04
64997;SHT31;51545;51.568;6.998;2023-07-09T14:29:51;29.38;64.59
64997;SHT31;51545;51.568;6.998;2023-07-09T14:32:30;28.37;70.23
64997;SHT31;51545;51.568;6.998;2023-07-09T14:35:01;26.79;76.74
64997;SHT31;51545;51.568;6.998;2023-07-09T14:37:28;25.36;83.87
64997;SHT31;51545;51.568;6.998;2023-07-09T14:39:54;23.97;87.66
64997;SHT31;51545;51.568;6.998;2023-07-09T14:42:19;23.51;89.82
64997;SHT31;51545;51.568;6.998;2023-07-09T14:44:47;23.35;87.45
64997;SHT31;51545;51.568;6.998;2023-07-09T14:47:18;23.84;82.61
64997;SHT31;51545;51.568;6.998;2023-07-09T14:49:46;24.10;84.95
64997;SHT31;51545;51.568;6.998;2023-07-09T14:52:13;23.67;89.07
64997;SHT31;51545;51.568;6.998;2023-07-09T14:54:42;23.46;88.33
64997;SHT31;51545;51.568;6.998;2023-07-09T14:57:15;23.51;88.62
64997;SHT31;51545;51.568;6.998;2023-07-09T14:59:46;23.18;89.69
64997;SHT31;51545;51.568;6.998;2023-07-09T15:04:47;23.03;87.75
64997;SHT31;51545;51.568;6.998;2023-07-09T15:07:13;22.47;88.57
64997;SHT31;51545;51.568;6.998;2023-07-09T15:09:39;22.27;90.97
64997;SHT31;51545;51.568;6.998;2023-07-09T15:12:08;22.36;93.54
64997;SHT31;51545;51.568;6.998;2023-07-09T15:14:40;21.92;95.23
64997;SHT31;51545;51.568;6.998;2023-07-09T15:17:07;21.97;94.57
64997;SHT31;51545;51.568;6.998;2023-07-09T15:19:35;21.99;93.50
64997;SHT31;51545;51.568;6.998;2023-07-09T15:22:00;22.09;91.99
64997;SHT31;51545;51.568;6.998;2023-07-09T15:24:30;22.10;92.01
64997;SHT31;51545;51.568;6.998;2023-07-09T15:26:58;22.20;93.21
64997;SHT31;51545;51.568;6.998;2023-07-09T15:29:25;22.33;93.10
64997;SHT31;51545;51.568;6.998;2023-07-09T15:31:51;22.54;94.12
64997;SHT31;51545;51.568;6.998;2023-07-09T15:34:17;22.57;94.22
64997;SHT31;51545;51.568;6.998;2023-07-09T15:36:48;22.54;94.32
64997;SHT31;51545;51.568;6.998;2023-07-09T15:39:15;22.61;94.50
64997;SHT31;51545;51.568;6.998;2023-07-09T15:41:41;22.54;94.96
64997;SHT31;51545;51.568;6.998;2023-07-09T15:44:10;22.74;96.56
64997;SHT31;51545;51.568;6.998;2023-07-09T15:46:37;22.59;96.40
64997;SHT31;51545;51.568;6.998;2023-07-09T15:49:06;22.61;97.69
64997;SHT31;51545;51.568;6.998;2023-07-09T15:51:31;22.50;96.54
64997;SHT31;51545;51.568;6.998;2023-07-09T15:53:57;22.78;97.26
64997;SHT31;51545;51.568;6.998;2023-07-09T15:58:55;22.99;97.58
64997;SHT31;51545;51.568;6.998;2023-07-09T16:01:22;22.85;97.79
64997;SHT31;51545;51.568;6.998;2023-07-09T16:03:51;22.78;96.74
64997;SHT31;51545;51.568;6.998;2023-07-09T16:06:23;22.75;96.76
64997;SHT31;51545;51.568;6.998;2023-07-09T16:08:48;22.77;97.03
64997;SHT31;51545;51.568;6.998;2023-07-09T16:11:16;22.71;96.84
64997;SHT31;51545;51.568;6.998;2023-07-09T16:13:44;22.60;97.55
64997;SHT31;51545;51.568;6.998;2023-07-09T16:16:18;22.44;96.83
64997;SHT31;51545;51.568;6.998;2023-07-09T16:18:45;22.49;96.57